createdAt,value
2023-03-17T00:01:51.306Z,11.63
2023-03-17T00:04:20.458Z,11.55
2023-03-17T00:06:48.748Z,11.77
2023-03-17T00:09:18.207Z,11.63
2023-03-17T00:11:46.700Z,11.76
2023-03-17T00:14:14.859Z,11.51
2023-03-17T00:16:45.116Z,11.54
2023-03-17T00:19:17.890Z,11.59
2023-03-17T00:21:47.023Z,11.44
2023-03-17T00:24:15.416Z,11.53
2023-03-17T00:26:43.848Z,11.48
2023-03-17T00:29:11.526Z,11.39
2023-03-17T00:31:40.174Z,11.44
2023-03-17T00:34:08.453Z,11.32
2023-03-17T00:36:37.477Z,11.48
2023-03-17T00:39:07.800Z,11.54
2023-03-17T00:41:35.272Z,11.54
2023-03-17T00:44:03.470Z,11.51
2023-03-17T00:46:37.802Z,11.61
2023-03-17T00:51:46.720Z,11.31
2023-03-17T00:54:15.536Z,11.21
2023-03-17T00:56:44.710Z,11.28
2023-03-17T00:59:26.060Z,11.14
2023-03-17T01:01:53.749Z,11.24
2023-03-17T01:04:21.238Z,10.97
2023-03-17T01:06:50.370Z,11.16
2023-03-17T01:09:19.364Z,11.19
2023-03-17T01:11:48.525Z,11.18
2023-03-17T01:14:16.751Z,11.14
2023-03-17T01:16:44.728Z,11.16
2023-03-17T01:19:14.107Z,11.30
2023-03-17T01:21:42.470Z,11.36
2023-03-17T01:24:10.073Z,11.34
2023-03-17T01:26:38.026Z,11.37
2023-03-17T01:29:06.291Z,11.39
2023-03-17T01:31:33.870Z,11.22
2023-03-17T01:34:01.411Z,11.20
2023-03-17T01:36:28.967Z,11.24
2023-03-17T01:38:57.266Z,11.16
2023-03-17T01:41:25.094Z,11.10
2023-03-17T01:43:52.635Z,11.11
2023-03-17T01:46:32.358Z,11.21
2023-03-17T01:49:19.292Z,11.05
2023-03-17T01:52:00.913Z,11.26
2023-03-17T01:54:35.498Z,11.12
2023-03-17T01:57:10.573Z,11.22
2023-03-17T01:59:45.466Z,11.32
2023-03-17T02:02:17.951Z,11.10
2023-03-17T02:04:45.451Z,11.02
2023-03-17T02:07:14.732Z,11.03
2023-03-17T02:09:42.265Z,10.96
2023-03-17T02:12:10.884Z,10.97
2023-03-17T02:14:38.411Z,11.04
2023-03-17T02:17:06.421Z,10.80
2023-03-17T02:19:34.198Z,10.87
2023-03-17T02:22:02.559Z,10.97
2023-03-17T02:24:45.970Z,10.74
2023-03-17T02:27:20.238Z,10.76
2023-03-17T02:29:48.205Z,10.81
2023-03-17T02:32:18.678Z,10.91
2023-03-17T02:34:48.296Z,10.85
2023-03-17T02:37:16.232Z,10.81
2023-03-17T02:39:43.905Z,10.75
2023-03-17T02:42:12.677Z,10.72
2023-03-17T02:44:40.502Z,10.69
2023-03-17T02:47:08.917Z,10.71
2023-03-17T02:49:38.677Z,10.91
2023-03-17T02:52:07.190Z,10.97
2023-03-17T02:54:35.066Z,10.96
2023-03-17T02:57:02.655Z,11.08
2023-03-17T02:59:30.654Z,11.06
2023-03-17T03:01:58.248Z,10.92
2023-03-17T03:04:26.185Z,11.19
2023-03-17T03:06:54.642Z,10.94
2023-03-17T03:09:22.555Z,11.03
2023-03-17T03:11:50.051Z,11.05
2023-03-17T03:14:17.609Z,11.14
2023-03-17T03:16:45.394Z,11.15
2023-03-17T03:19:12.962Z,11.10
2023-03-17T03:21:40.679Z,10.87
2023-03-17T03:24:08.616Z,11.28
2023-03-17T03:26:36.237Z,11.03
2023-03-17T03:29:05.329Z,11.27
2023-03-17T03:31:32.891Z,11.28
2023-03-17T03:34:00.427Z,11.12
2023-03-17T03:36:28.551Z,11.22
2023-03-17T03:38:56.095Z,11.10
2023-03-17T03:41:23.620Z,11.29
2023-03-17T03:43:51.279Z,11.11
2023-03-17T03:46:18.820Z,11.31
2023-03-17T03:48:46.340Z,10.98
2023-03-17T03:51:13.916Z,11.30
2023-03-17T03:53:41.500Z,11.06
2023-03-17T03:56:09.137Z,10.95
2023-03-17T03:58:36.713Z,11.05
2023-03-17T04:01:09.488Z,10.89
2023-03-17T04:03:38.283Z,11.10
2023-03-17T04:06:06.877Z,10.94
2023-03-17T04:08:34.401Z,10.90
2023-03-17T04:11:02.024Z,10.98
2023-03-17T04:13:29.563Z,11.01
2023-03-17T04:15:57.225Z,11.10
2023-03-17T04:18:25.786Z,11.04
2023-03-17T04:20:53.362Z,11.30
2023-03-17T04:23:20.870Z,11.28
2023-03-17T04:25:48.777Z,11.21
2023-03-17T04:28:16.307Z,11.30
2023-03-17T04:30:44.062Z,11.35
2023-03-17T04:33:11.867Z,11.16
2023-03-17T04:35:39.506Z,11.39
2023-03-17T04:38:07.154Z,11.57
2023-03-17T04:40:34.677Z,11.54
2023-03-17T04:43:03.557Z,11.17
2023-03-17T04:45:31.204Z,11.17
2023-03-17T04:47:58.847Z,11.22
2023-03-17T04:50:26.517Z,10.99
2023-03-17T04:52:54.162Z,11.06
2023-03-17T04:55:21.823Z,11.22
2023-03-17T04:57:49.560Z,11.20
2023-03-17T05:00:18.216Z,11.32
2023-03-17T05:02:45.875Z,11.35
2023-03-17T05:05:13.694Z,11.23
2023-03-17T05:07:41.611Z,11.00
2023-03-17T05:10:09.820Z,11.28
2023-03-17T05:12:37.304Z,11.19
2023-03-17T05:15:05.457Z,11.25
2023-03-17T05:17:32.957Z,11.65
2023-03-17T05:20:00.527Z,11.44
2023-03-17T05:22:28.161Z,11.20
2023-03-17T05:24:55.644Z,11.22
2023-03-17T05:27:23.243Z,11.35
2023-03-17T05:29:50.773Z,11.53
2023-03-17T05:32:18.378Z,11.23
2023-03-17T05:34:46.384Z,10.99
2023-03-17T05:37:14.108Z,11.34
2023-03-17T05:39:42.087Z,11.35
2023-03-17T05:42:09.686Z,11.06
2023-03-17T05:44:37.180Z,10.98
2023-03-17T05:47:04.697Z,11.17
2023-03-17T05:49:32.285Z,11.29
2023-03-17T05:51:59.872Z,11.40
2023-03-17T05:54:27.667Z,11.47
2023-03-17T05:56:55.438Z,11.11
2023-03-17T05:59:23.064Z,11.20
2023-03-17T06:01:50.663Z,11.00
2023-03-17T06:04:18.185Z,11.13
2023-03-17T06:06:45.725Z,11.22
2023-03-17T06:09:13.289Z,11.30
2023-03-17T06:11:41.633Z,11.56
2023-03-17T06:14:09.134Z,11.34
2023-03-17T06:16:36.739Z,11.39
2023-03-17T06:19:04.340Z,11.42
2023-03-17T06:21:31.796Z,11.44
2023-03-17T06:23:59.304Z,11.38
2023-03-17T06:26:27.218Z,11.43
2023-03-17T06:28:55.040Z,11.57
2023-03-17T06:31:23.854Z,11.42
2023-03-17T06:33:51.585Z,11.47
2023-03-17T06:36:19.099Z,11.60
2023-03-17T06:38:47.123Z,11.48
2023-03-17T06:41:14.940Z,11.26
2023-03-17T06:43:42.633Z,11.41
2023-03-17T06:46:10.528Z,11.46
2023-03-17T06:48:38.296Z,11.56
2023-03-17T06:51:06.314Z,11.56
2023-03-17T06:53:33.936Z,11.60
2023-03-17T06:56:01.572Z,11.70
2023-03-17T06:58:29.324Z,11.88
2023-03-17T07:00:57.091Z,11.86
2023-03-17T07:03:25.796Z,11.86
2023-03-17T07:05:53.612Z,11.98
2023-03-17T07:08:22.040Z,11.83
2023-03-17T07:10:50.026Z,11.94
2023-03-17T07:13:17.609Z,12.08
2023-03-17T07:15:46.210Z,12.19
2023-03-17T07:18:13.759Z,12.20
2023-03-17T07:20:42.180Z,12.29
2023-03-17T07:23:16.163Z,12.00
2023-03-17T07:25:45.592Z,12.21
2023-03-17T07:28:13.143Z,12.24
2023-03-17T07:30:43.794Z,12.55
2023-03-17T07:33:11.307Z,12.40
2023-03-17T07:35:38.886Z,12.41
2023-03-17T07:38:06.515Z,12.53
2023-03-17T07:40:35.434Z,12.59
2023-03-17T07:43:04.599Z,12.74
2023-03-17T07:45:32.934Z,12.98
2023-03-17T07:48:01.336Z,12.89
2023-03-17T07:50:28.942Z,12.83
2023-03-17T07:52:56.664Z,13.07
2023-03-17T07:55:24.377Z,13.00
2023-03-17T07:57:52.865Z,13.10
2023-03-17T08:00:23.589Z,13.04
2023-03-17T08:03:06.985Z,13.20
2023-03-17T08:05:36.644Z,13.46
2023-03-17T08:08:05.238Z,13.63
2023-03-17T08:10:33.152Z,13.76
2023-03-17T08:13:01.810Z,13.54
2023-03-17T08:15:30.812Z,13.62
2023-03-17T08:17:58.380Z,13.87
2023-03-17T08:20:25.870Z,14.18
2023-03-17T08:22:53.443Z,13.97
2023-03-17T08:25:21.923Z,14.33
2023-03-17T08:27:50.033Z,14.52
2023-03-17T08:30:18.217Z,14.58
2023-03-17T08:32:46.493Z,14.70
2023-03-17T08:35:16.283Z,14.77
2023-03-17T08:37:44.888Z,14.93
2023-03-17T08:40:16.991Z,14.68
2023-03-17T08:42:45.723Z,15.31
2023-03-17T08:45:14.188Z,15.33
2023-03-17T08:47:41.820Z,15.29
2023-03-17T08:50:15.743Z,15.64
2023-03-17T08:52:43.616Z,15.30
2023-03-17T08:55:13.047Z,15.45
2023-03-17T08:57:40.662Z,15.69
2023-03-17T09:00:11.390Z,16.05
2023-03-17T09:02:44.991Z,15.98
2023-03-17T09:05:14.946Z,16.69
2023-03-17T09:07:43.640Z,16.95
2023-03-17T09:10:13.718Z,17.08
2023-03-17T09:12:41.534Z,17.03
2023-03-17T09:15:10.224Z,16.94
2023-03-17T09:17:38.116Z,16.98
2023-03-17T09:20:07.424Z,16.85
2023-03-17T09:22:35.074Z,16.88
2023-03-17T09:25:02.591Z,17.21
2023-03-17T09:27:30.136Z,17.08
2023-03-17T09:29:57.999Z,16.96
2023-03-17T09:32:25.821Z,17.53
2023-03-17T09:34:53.410Z,17.92
2023-03-17T09:37:21.344Z,17.61
2023-03-17T09:39:48.863Z,17.65
2023-03-17T09:42:23.356Z,18.43
2023-03-17T09:45:07.068Z,18.35
2023-03-17T09:47:48.040Z,18.15
2023-03-17T09:50:32.059Z,18.39
2023-03-17T09:53:03.974Z,17.60
2023-03-17T09:55:34.227Z,17.71
2023-03-17T09:58:03.432Z,17.91
2023-03-17T10:00:31.300Z,18.04
2023-03-17T10:03:01.537Z,17.71
2023-03-17T10:05:31.467Z,17.88
2023-03-17T10:08:31.632Z,18.27
2023-03-17T10:11:13.458Z,18.48
2023-03-17T10:13:54.785Z,18.84
2023-03-17T10:16:28.569Z,19.01
2023-03-17T10:19:07.101Z,19.83
2023-03-17T10:21:40.947Z,19.63
2023-03-17T10:24:11.374Z,19.62
2023-03-17T10:26:51.638Z,19.55
2023-03-17T10:29:22.723Z,19.79
2023-03-17T10:31:58.263Z,19.58
2023-03-17T10:34:32.295Z,19.19
2023-03-17T10:37:07.856Z,19.46
2023-03-17T10:39:45.784Z,19.62
2023-03-17T10:42:33.817Z,19.52
2023-03-17T10:45:29.863Z,19.43
2023-03-17T10:47:59.793Z,20.00
2023-03-17T10:50:33.517Z,19.79
2023-03-17T10:53:20.301Z,19.37
2023-03-17T10:55:52.897Z,19.15
2023-03-17T10:58:37.301Z,19.34
2023-03-17T11:01:36.746Z,19.61
2023-03-17T11:04:07.674Z,19.61
2023-03-17T11:06:42.893Z,19.06
2023-03-17T11:09:16.765Z,19.84
2023-03-17T11:11:49.851Z,19.84
2023-03-17T11:14:19.940Z,20.06
2023-03-17T11:16:55.914Z,19.70
2023-03-17T11:19:45.489Z,19.04
2023-03-17T11:22:23.572Z,19.37
2023-03-17T11:25:15.770Z,19.44
2023-03-17T11:28:06.842Z,19.97
2023-03-17T11:30:37.465Z,20.32
2023-03-17T11:33:05.692Z,20.61
2023-03-17T11:35:47.733Z,21.11
2023-03-17T11:38:20.930Z,21.16
2023-03-17T11:40:57.616Z,20.86
2023-03-17T11:43:31.406Z,20.84
2023-03-17T11:46:27.468Z,20.64
2023-03-17T11:49:36.909Z,20.74
2023-03-17T11:52:07.253Z,21.25
2023-03-17T11:54:41.808Z,21.12
2023-03-17T11:57:34.945Z,21.13
2023-03-17T12:00:22.739Z,20.95
2023-03-17T12:03:02.336Z,21.11
2023-03-17T12:05:31.574Z,21.15
2023-03-17T12:08:07.677Z,21.51
2023-03-17T12:10:43.838Z,22.04
2023-03-17T12:13:31.187Z,21.71
2023-03-17T12:16:15.696Z,21.76
2023-03-17T12:18:56.736Z,21.64
2023-03-17T12:21:34.280Z,21.78
2023-03-17T12:24:11.866Z,21.63
2023-03-17T12:26:56.025Z,21.62
2023-03-17T12:29:37.758Z,21.65
2023-03-17T12:32:17.298Z,22.00
2023-03-17T12:34:52.988Z,21.53
2023-03-17T12:37:22.919Z,21.47
2023-03-17T12:39:55.764Z,21.32
2023-03-17T12:42:36.620Z,21.35
2023-03-17T12:45:27.757Z,21.41
2023-03-17T12:48:13.158Z,21.29
2023-03-17T12:51:14.479Z,21.15
2023-03-17T12:53:48.820Z,21.02
2023-03-17T12:56:32.987Z,20.55
2023-03-17T12:59:07.362Z,20.90
2023-03-17T13:01:39.863Z,21.02
2023-03-17T13:04:13.691Z,21.26
2023-03-17T13:07:15.615Z,20.94
2023-03-17T13:10:10.052Z,21.11
2023-03-17T13:12:56.496Z,21.13
2023-03-17T13:15:24.110Z,20.77
2023-03-17T13:17:53.598Z,20.60
2023-03-17T13:20:21.737Z,20.70
2023-03-17T13:23:03.228Z,20.75
2023-03-17T13:25:31.232Z,20.80
2023-03-17T13:28:13.934Z,21.19
2023-03-17T13:30:41.473Z,21.20
2023-03-17T13:33:12.158Z,21.39
2023-03-17T13:35:46.029Z,21.44
2023-03-17T13:38:27.759Z,21.20
2023-03-17T13:41:15.683Z,21.33
2023-03-17T13:44:10.447Z,21.16
2023-03-17T13:46:39.297Z,21.35
2023-03-17T13:49:19.358Z,21.12
2023-03-17T13:52:09.603Z,20.82
2023-03-17T13:54:59.802Z,21.08
2023-03-17T13:57:28.910Z,21.15
2023-03-17T14:00:05.641Z,21.58
2023-03-17T14:02:36.461Z,21.15
2023-03-17T14:05:07.541Z,21.24
2023-03-17T14:07:53.557Z,21.43
2023-03-17T14:10:24.869Z,21.60
2023-03-17T14:13:31.746Z,21.61
2023-03-17T14:16:22.566Z,21.59
2023-03-17T14:18:58.931Z,21.46
2023-03-17T14:21:32.305Z,21.63
2023-03-17T14:24:18.419Z,21.89
2023-03-17T14:26:48.120Z,22.14
2023-03-17T14:29:18.691Z,22.16
2023-03-17T14:31:49.809Z,22.62
2023-03-17T14:34:17.463Z,22.11
2023-03-17T14:36:45.551Z,22.18
2023-03-17T14:39:26.904Z,22.39
2023-03-17T14:42:06.649Z,22.57
2023-03-17T14:44:38.906Z,22.49
2023-03-17T14:47:14.691Z,22.01
2023-03-17T14:49:42.508Z,22.47
2023-03-17T14:52:20.002Z,22.46
2023-03-17T14:54:52.081Z,22.08
2023-03-17T14:57:22.591Z,22.24
2023-03-17T14:59:59.104Z,21.50
2023-03-17T15:02:34.158Z,21.69
2023-03-17T15:05:22.150Z,21.33
2023-03-17T15:07:49.714Z,21.52
2023-03-17T15:10:20.127Z,21.31
2023-03-17T15:12:48.734Z,21.35
2023-03-17T15:15:29.857Z,21.47
2023-03-17T15:18:00.655Z,21.27
2023-03-17T15:20:31.540Z,21.47
2023-03-17T15:23:24.816Z,21.41
2023-03-17T15:25:56.421Z,21.36
2023-03-17T15:28:26.755Z,21.06
2023-03-17T15:30:57.617Z,20.27
2023-03-17T15:33:34.553Z,20.44
2023-03-17T15:36:02.368Z,20.10
2023-03-17T15:38:30.334Z,20.36
2023-03-17T15:40:58.183Z,20.70
2023-03-17T15:43:25.907Z,20.62
2023-03-17T15:46:02.747Z,20.66
2023-03-17T15:48:33.279Z,20.62
2023-03-17T15:51:01.756Z,20.43
2023-03-17T15:53:30.118Z,20.45
2023-03-17T15:55:57.621Z,20.25
2023-03-17T15:58:25.961Z,20.46
2023-03-17T16:00:57.474Z,20.67
2023-03-17T16:03:33.966Z,19.98
2023-03-17T16:06:03.507Z,20.25
2023-03-17T16:08:31.415Z,20.48
2023-03-17T16:10:58.966Z,20.32
2023-03-17T16:13:26.495Z,20.59
2023-03-17T16:15:57.284Z,20.46
2023-03-17T16:18:34.253Z,20.64
2023-03-17T16:21:02.839Z,20.50
2023-03-17T16:23:33.628Z,20.60
2023-03-17T16:26:14.172Z,20.51
2023-03-17T16:28:44.498Z,20.27
2023-03-17T16:31:22.768Z,20.38
2023-03-17T16:33:51.508Z,20.41
2023-03-17T16:36:20.628Z,20.37
2023-03-17T16:38:49.129Z,20.47
2023-03-17T16:41:23.076Z,20.48
2023-03-17T16:43:59.723Z,20.32
2023-03-17T16:46:27.970Z,20.14
2023-03-17T16:48:56.162Z,20.12
2023-03-17T16:51:24.876Z,19.88
2023-03-17T16:53:52.567Z,20.00
2023-03-17T16:56:21.937Z,20.15
2023-03-17T16:58:50.223Z,20.18
2023-03-17T17:01:24.448Z,20.10
2023-03-17T17:03:52.143Z,20.03
2023-03-17T17:06:22.298Z,20.04
2023-03-17T17:08:51.127Z,20.00
2023-03-17T17:11:20.054Z,19.99
2023-03-17T17:13:49.933Z,20.04
2023-03-17T17:16:26.522Z,19.98
2023-03-17T17:18:54.286Z,19.97
2023-03-17T17:21:22.209Z,20.02
2023-03-17T17:23:52.689Z,19.91
2023-03-17T17:26:22.991Z,19.89
2023-03-17T17:28:50.812Z,19.95
2023-03-17T17:31:18.450Z,19.83
2023-03-17T17:33:46.100Z,19.39
2023-03-17T17:36:16.450Z,19.44
2023-03-17T17:38:44.816Z,19.47
2023-03-17T17:41:14.171Z,19.16
2023-03-17T17:43:42.120Z,19.04
2023-03-17T17:46:18.584Z,19.25
2023-03-17T17:48:46.616Z,19.41
2023-03-17T17:51:14.758Z,19.47
2023-03-17T17:53:42.373Z,19.16
2023-03-17T17:56:15.742Z,19.07
2023-03-17T17:58:44.316Z,19.06
2023-03-17T18:01:14.017Z,18.99
2023-03-17T18:03:42.989Z,19.04
2023-03-17T18:06:11.691Z,19.01
2023-03-17T18:08:40.007Z,18.97
2023-03-17T18:11:07.572Z,18.93
2023-03-17T18:13:36.174Z,18.87
2023-03-17T18:16:04.023Z,18.84
2023-03-17T18:18:32.580Z,18.95
2023-03-17T18:21:00.179Z,18.95
2023-03-17T18:23:28.095Z,18.84
2023-03-17T18:26:02.694Z,18.90
2023-03-17T18:28:30.699Z,19.01
2023-03-17T18:31:06.213Z,19.05
2023-03-17T18:33:34.347Z,19.07
2023-03-17T18:36:02.131Z,19.06
2023-03-17T18:38:29.675Z,18.95
2023-03-17T18:40:57.241Z,18.92
2023-03-17T18:43:24.842Z,18.87
2023-03-17T18:45:52.360Z,18.91
2023-03-17T18:48:20.342Z,18.89
2023-03-17T18:50:49.211Z,18.90
2023-03-17T18:53:16.958Z,18.77
2023-03-17T18:55:44.518Z,18.64
2023-03-17T18:58:12.797Z,18.78
2023-03-17T19:00:40.834Z,18.79
2023-03-17T19:03:08.466Z,18.59
2023-03-17T19:05:39.428Z,18.60
2023-03-17T19:08:07.700Z,18.55
2023-03-17T19:10:35.572Z,18.51
2023-03-17T19:13:04.443Z,18.53
2023-03-17T19:15:32.000Z,18.40
2023-03-17T19:17:59.509Z,18.62
2023-03-17T19:20:26.985Z,18.49
2023-03-17T19:22:54.505Z,18.47
2023-03-17T19:25:22.584Z,18.55
2023-03-17T19:27:50.370Z,18.58
2023-03-17T19:30:19.205Z,18.49
2023-03-17T19:32:46.682Z,18.50
2023-03-17T19:35:14.362Z,18.53
2023-03-17T19:37:41.907Z,18.58
2023-03-17T19:40:10.517Z,18.61
2023-03-17T19:42:38.096Z,18.52
2023-03-17T19:45:06.554Z,18.60
2023-03-17T19:47:34.176Z,18.47
2023-03-17T19:50:01.746Z,18.39
2023-03-17T19:52:29.282Z,18.27
2023-03-17T19:54:56.957Z,18.39
2023-03-17T19:57:24.464Z,18.36
2023-03-17T19:59:52.056Z,18.22
2023-03-17T20:02:20.535Z,18.21
2023-03-17T20:04:49.091Z,18.18
2023-03-17T20:07:16.846Z,18.05
2023-03-17T20:09:47.877Z,18.10
2023-03-17T20:12:15.752Z,18.15
2023-03-17T20:14:43.361Z,18.18
2023-03-17T20:17:12.050Z,18.29
2023-03-17T20:19:39.712Z,18.26
2023-03-17T20:22:08.656Z,18.26
2023-03-17T20:24:37.057Z,18.31
2023-03-17T20:27:05.322Z,18.28
2023-03-17T20:29:32.993Z,18.28
2023-03-17T20:32:02.018Z,18.34
2023-03-17T20:34:29.525Z,18.37
2023-03-17T20:36:57.006Z,18.21
2023-03-17T20:39:25.064Z,18.13
2023-03-17T20:41:53.111Z,18.01
2023-03-17T20:44:23.015Z,18.05
2023-03-17T20:46:53.045Z,18.18
2023-03-17T20:49:20.912Z,18.16
2023-03-17T20:51:49.069Z,18.22
2023-03-17T20:54:17.891Z,17.97
2023-03-17T20:56:45.625Z,17.97
2023-03-17T20:59:13.354Z,17.95
2023-03-17T21:01:42.603Z,17.96
2023-03-17T21:04:12.388Z,18.09
2023-03-17T21:06:41.385Z,17.98
2023-03-17T21:09:09.828Z,18.01
2023-03-17T21:11:38.619Z,17.83
2023-03-17T21:14:08.032Z,17.79
2023-03-17T21:16:37.157Z,17.85
2023-03-17T21:19:08.658Z,17.61
2023-03-17T21:21:37.114Z,17.68
2023-03-17T21:24:05.512Z,17.66
2023-03-17T21:26:33.401Z,17.78
2023-03-17T21:29:00.955Z,17.59
2023-03-17T21:31:28.603Z,17.74
2023-03-17T21:33:56.182Z,17.63
2023-03-17T21:36:23.755Z,17.68
2023-03-17T21:38:51.239Z,17.60
2023-03-17T21:41:23.695Z,17.70
2023-03-17T21:43:51.509Z,17.70
2023-03-17T21:46:18.985Z,17.54
2023-03-17T21:48:46.538Z,17.72
2023-03-17T21:51:14.045Z,17.57
2023-03-17T21:53:41.564Z,17.64
2023-03-17T21:56:11.974Z,17.73
2023-03-17T21:58:40.137Z,17.59
2023-03-17T22:01:09.111Z,17.54
2023-03-17T22:03:37.308Z,17.46
2023-03-17T22:06:05.518Z,17.50
2023-03-17T22:08:33.227Z,17.65
2023-03-17T22:11:00.698Z,17.50
2023-03-17T22:13:28.233Z,17.45
2023-03-17T22:15:59.660Z,17.34
2023-03-17T22:18:27.276Z,17.20
2023-03-17T22:20:56.290Z,17.16
2023-03-17T22:23:24.570Z,17.18
2023-03-17T22:25:52.580Z,17.37
2023-03-17T22:28:20.464Z,17.25
2023-03-17T22:30:49.063Z,17.35
2023-03-17T22:33:17.419Z,17.51
2023-03-17T22:35:45.419Z,17.35
2023-03-17T22:38:13.322Z,17.39
2023-03-17T22:40:41.425Z,17.25
2023-03-17T22:43:08.929Z,17.09
2023-03-17T22:45:36.446Z,17.16
2023-03-17T22:48:04.183Z,16.95
2023-03-17T22:50:31.933Z,16.96
2023-03-17T22:52:59.605Z,16.78
2023-03-17T22:55:27.164Z,16.86
2023-03-17T22:57:54.775Z,17.01
2023-03-17T23:00:22.962Z,16.74
2023-03-17T23:02:50.490Z,16.84
2023-03-17T23:05:18.401Z,16.70
2023-03-17T23:07:52.761Z,16.71
2023-03-17T23:10:24.498Z,16.68
2023-03-17T23:12:52.785Z,16.54
2023-03-17T23:15:21.132Z,16.45
2023-03-17T23:17:48.801Z,16.37
2023-03-17T23:20:16.638Z,16.34
2023-03-17T23:22:44.298Z,16.28
2023-03-17T23:25:13.628Z,15.96
2023-03-17T23:27:42.065Z,16.07
2023-03-17T23:30:12.818Z,16.17
2023-03-17T23:32:41.699Z,16.08
2023-03-17T23:35:11.105Z,16.10
2023-03-17T23:37:38.594Z,15.96
2023-03-17T23:40:07.380Z,15.98
2023-03-17T23:42:35.540Z,15.98
2023-03-17T23:45:04.138Z,15.87
2023-03-17T23:47:31.719Z,15.73
2023-03-17T23:49:59.343Z,15.56
2023-03-17T23:52:27.094Z,15.60
2023-03-17T23:54:54.767Z,15.52
2023-03-17T23:57:22.872Z,15.48
2023-03-17T23:59:50.468Z,15.38
